Time;durP1;ratioP1;P1;durP2;ratioP2;P2;SDS_P1;SDS_P2;PMS_P1;PMS_P2;Temp;Humidity;BMP_temperature;BMP_pressure;BME280_temperature;BME280_humidity;BME280_pressure;Samples;Min_cycle;Max_cycle;Signal;HPM_P1;HPM_P2
2021/03/28 00:01:24;;;;;;;47.58;30.02;;;;;;;6.85;66.30;99655.34;1778977;79;21375;-58
2021/03/28 00:03:58;;;;;;;48.63;30.82;;;;;;;6.86;66.37;99656.99;1626377;85;21242;-54
2021/03/28 00:06:30;;;;;;;50.10;30.32;;;;;;;6.88;66.35;99652.42;1774412;77;22325;-55
2021/03/28 00:09:27;;;;;;;49.73;32.10;;;;;;;6.90;66.33;99652.27;1742965;81;21144;-55
2021/03/28 00:12:23;;;;;;;50.88;31.97;;;;;;;6.91;66.29;99655.27;1723266;80;21105;-56
2021/03/28 00:15:14;;;;;;;53.20;31.02;;;;;;;6.92;66.25;99655.11;1735195;81;21016;-54
2021/03/28 00:17:55;;;;;;;56.90;33.73;;;;;;;6.95;66.19;99657.95;1740165;79;21022;-54
2021/03/28 00:20:27;;;;;;;54.85;32.78;;;;;;;6.95;66.14;99658.80;1727118;80;21390;-56
2021/03/28 00:23:24;;;;;;;49.55;32.53;;;;;;;6.96;66.11;99662.28;1742821;80;20947;-58
2021/03/28 00:26:02;;;;;;;55.73;33.35;;;;;;;6.95;66.07;99664.09;1738744;82;20989;-55
2021/03/28 00:28:43;;;;;;;55.25;34.85;;;;;;;6.96;66.08;99665.73;1736908;82;21002;-54
2021/03/28 00:31:25;;;;;;;53.20;32.60;;;;;;;6.95;66.08;99665.89;1732422;80;21068;-54
2021/03/28 00:34:04;;;;;;;57.58;33.38;;;;;;;6.93;66.11;99667.38;1737745;80;21213;-55
2021/03/28 00:36:46;;;;;;;55.30;33.98;;;;;;;6.93;66.15;99662.08;1802495;77;21030;-55
2021/03/28 00:39:40;;;;;;;51.08;33.05;;;;;;;6.92;66.19;99661.72;1803306;78;21030;-54
2021/03/28 00:42:27;;;;;;;53.08;32.88;;;;;;;6.92;66.26;99665.69;1727365;82;21045;-55
2021/03/28 00:45:12;;;;;;;51.33;34.15;;;;;;;6.92;66.33;99668.81;1740870;81;21015;-55
2021/03/28 00:47:42;;;;;;;52.45;31.85;;;;;;;6.92;66.36;99673.63;1758224;79;21278;-55
2021/03/28 00:50:25;;;;;;;58.38;35.38;;;;;;;6.93;66.42;99665.20;1714577;81;21163;-56
2021/03/28 00:52:56;;;;;;;51.83;33.02;;;;;;;6.94;66.46;99666.37;1792741;78;21143;-55
2021/03/28 00:55:28;;;;;;;48.17;31.02;;;;;;;6.96;66.52;99669.70;1804194;78;21123;-55
2021/03/28 00:58:17;;;;;;;48.02;31.68;;;;;;;6.99;66.50;99672.58;1737533;82;20945;-56
2021/03/28 01:01:19;;;;;;;58.58;34.27;;;;;;;7.02;66.47;99672.27;1773130;79;21203;-58
2021/03/28 01:04:44;;;;;;;52.58;33.40;;;;;;;7.03;66.43;99668.66;1732024;80;20946;-57
2021/03/28 01:07:36;;;;;;;52.95;33.78;;;;;;;7.05;66.41;99670.66;1770059;79;21047;-56
2021/03/28 01:10:39;;;;;;;52.43;34.08;;;;;;;7.06;66.40;99678.48;1746802;81;21153;-57
2021/03/28 01:14:02;;;;;;;48.60;31.50;;;;;;;7.05;66.44;99676.80;1751809;80;21134;-55
2021/03/28 01:17:16;;;;;;;53.08;33.60;;;;;;;7.06;66.47;99688.22;1754454;80;21038;-54
2021/03/28 01:20:06;;;;;;;51.08;33.48;;;;;;;7.02;66.56;99688.14;1740506;80;21231;-54
2021/03/28 01:23:12;;;;;;;57.25;35.00;;;;;;;6.93;66.82;99687.69;1788219;79;20999;-56
2021/03/28 01:26:09;;;;;;;65.67;35.73;;;;;;;6.88;67.07;99689.45;1738015;80;21012;-54
2021/03/28 01:28:56;;;;;;;56.75;34.65;;;;;;;6.81;67.37;99685.67;1718208;82;21203;-58
2021/03/28 01:31:37;;;;;;;54.77;33.05;;;;;;;6.76;67.65;99687.91;1762234;80;21432;-55
2021/03/28 01:34:16;;;;;;;53.85;35.13;;;;;;;6.73;67.96;99694.31;1773163;80;21544;-55
2021/03/28 01:36:49;;;;;;;58.78;36.08;;;;;;;6.71;68.28;99686.18;1735264;81;21171;-55
2021/03/28 01:39:24;;;;;;;57.53;36.88;;;;;;;6.68;68.44;99687.30;1717986;82;21040;-54
2021/03/28 01:41:58;;;;;;;59.30;37.33;;;;;;;6.64;68.66;99693.02;1747723;82;21612;-57
2021/03/28 01:44:33;;;;;;;53.33;33.92;;;;;;;6.57;68.98;99694.55;1777925;79;22265;-56
2021/03/28 01:47:36;;;;;;;63.78;39.67;;;;;;;6.51;69.34;99693.30;1752007;80;21061;-58
2021/03/28 01:50:17;;;;;;;57.53;37.35;;;;;;;6.45;69.75;99703.58;1803438;77;21147;-55
2021/03/28 01:53:17;;;;;;;60.45;37.15;;;;;;;6.37;70.35;99704.75;1811311;77;20986;-54
2021/03/28 01:55:59;;;;;;;57.88;35.28;;;;;;;6.33;70.84;99704.70;1725568;80;21013;-56
2021/03/28 01:58:44;;;;;;;58.02;35.48;;;;;;;6.31;71.45;99710.09;1737879;77;21283;-54
2021/03/28 02:01:25;;;;;;;58.05;37.08;;;;;;;6.31;71.99;99706.14;1782505;77;21215;-55
2021/03/28 02:04:04;;;;;;;66.62;40.23;;;;;;;6.31;72.53;99714.58;1788939;77;21044;-58
2021/03/28 02:06:47;;;;;;;59.35;36.77;;;;;;;6.32;73.03;99716.22;1813391;78;21033;-55
2021/03/28 02:09:35;;;;;;;66.80;40.30;;;;;;;6.34;73.31;99714.27;1784028;79;21012;-58
2021/03/28 02:12:23;;;;;;;65.17;39.03;;;;;;;6.37;73.82;99721.92;1743576;80;21725;-55
2021/03/28 02:15:15;;;;;;;56.13;36.63;;;;;;;6.42;74.34;99718.38;1748289;80;20925;-55
2021/03/28 02:18:13;;;;;;;58.92;38.30;;;;;;;6.45;74.76;99717.63;1751245;79;21049;-58
2021/03/28 02:21:12;;;;;;;62.00;36.83;;;;;;;6.50;75.24;99711.44;1791316;77;21065;-56
2021/03/28 02:24:00;;;;;;;60.17;39.00;;;;;;;6.56;75.69;99716.66;1781722;77;21112;-56
2021/03/28 02:26:39;;;;;;;61.13;37.15;;;;;;;6.61;76.29;99718.40;1802731;78;21216;-56
2021/03/28 02:29:30;;;;;;;65.42;36.83;;;;;;;6.63;76.94;99716.45;1802490;77;21106;-57
2021/03/28 02:32:23;;;;;;;57.60;35.00;;;;;;;6.67;77.50;99717.85;1800635;78;21041;-55
2021/03/28 02:35:13;;;;;;;51.90;33.45;;;;;;;6.70;78.06;99720.22;1736915;82;20998;-55
2021/03/28 02:37:54;;;;;;;50.15;32.28;;;;;;;6.75;78.59;99725.41;1737146;79;21146;-54
2021/03/28 02:40:48;;;;;;;46.58;31.50;;;;;;;6.80;79.00;99721.05;1757695;80;21376;-57
2021/03/28 02:43:46;;;;;;;42.15;29.07;;;;;;;6.86;79.33;99724.43;1732804;81;21139;-54
2021/03/28 02:46:45;;;;;;;43.58;30.05;;;;;;;6.91;79.78;99728.00;1731383;80;21045;-55
2021/03/28 02:49:36;;;;;;;51.42;30.30;;;;;;;6.94;80.40;99727.69;1735068;80;21022;-57
2021/03/28 02:52:40;;;;;;;41.77;28.20;;;;;;;6.96;80.96;99732.38;1803064;77;21128;-56
2021/03/28 02:55:36;;;;;;;43.52;28.23;;;;;;;6.99;81.42;99730.78;1755380;79;21645;-56
2021/03/28 02:58:33;;;;;;;41.85;27.75;;;;;;;7.06;82.05;99735.84;1738641;80;20965;-56
2021/03/28 03:01:40;;;;;;;35.95;25.20;;;;;;;7.11;82.52;99738.89;1724057;81;21054;-54
2021/03/28 03:04:47;;;;;;;38.80;25.65;;;;;;;7.13;82.88;99744.38;1720743;81;20951;-55
2021/03/28 03:07:54;;;;;;;38.00;25.48;;;;;;;7.14;83.38;99738.12;1743342;81;21061;-56
2021/03/28 03:11:18;;;;;;;35.15;24.72;;;;;;;7.19;83.97;99741.18;1754050;79;21453;-55
2021/03/28 03:14:14;;;;;;;33.55;23.02;;;;;;;7.23;84.25;99749.16;1720736;81;21028;-56
2021/03/28 03:17:08;;;;;;;28.73;20.52;;;;;;;7.28;84.50;99744.28;1708460;83;21206;-55
2021/03/28 03:20:11;;;;;;;33.60;24.40;;;;;;;7.32;84.74;99740.87;1711588;80;21156;-58
2021/03/28 03:23:27;;;;;;;34.20;23.47;;;;;;;7.34;84.88;99745.04;1713975;82;20938;-54
2021/03/28 03:26:29;;;;;;;32.10;21.80;;;;;;;7.38;84.94;99743.76;1714097;80;21345;-55
2021/03/28 03:29:35;;;;;;;31.27;23.00;;;;;;;7.40;85.05;99748.41;1672524;80;21164;-57
2021/03/28 03:32:32;;;;;;;35.85;22.93;;;;;;;7.40;85.16;99744.44;1734328;82;21120;-55
2021/03/28 03:35:23;;;;;;;31.12;20.23;;;;;;;7.42;85.25;99749.61;1730269;80;21013;-55
2021/03/28 03:38:29;;;;;;;32.25;22.00;;;;;;;7.42;85.31;99753.09;1738235;80;20934;-54
2021/03/28 03:41:29;;;;;;;32.10;20.17;;;;;;;7.42;85.33;99747.80;1713906;82;21384;-56
2021/03/28 03:44:40;;;;;;;28.02;19.37;;;;;;;7.43;85.35;99753.91;1713766;82;21197;-55
2021/03/28 03:47:23;;;;;;;29.40;20.17;;;;;;;7.43;85.47;99758.72;1723388;82;21132;-55
2021/03/28 03:50:19;;;;;;;30.30;20.30;;;;;;;7.42;85.50;99766.34;1720240;80;21059;-58
2021/03/28 03:53:21;;;;;;;26.30;19.23;;;;;;;7.43;85.55;99771.95;1721632;80;21116;-55
2021/03/28 03:56:09;;;;;;;28.15;19.40;;;;;;;7.42;85.53;99768.14;1702398;80;21500;-56
2021/03/28 03:58:59;;;;;;;28.45;18.45;;;;;;;7.41;85.58;99775.23;1739725;81;21159;-54
2021/03/28 04:01:38;;;;;;;26.02;17.52;;;;;;;7.44;85.53;99783.38;1779127;78;21144;-56
2021/03/28 04:04:35;;;;;;;28.40;20.35;;;;;;;7.43;85.40;99779.89;1789460;79;21005;-57
2021/03/28 04:07:40;;;;;;;25.35;18.62;;;;;;;7.40;85.36;99781.50;1782174;78;21137;-55
2021/03/28 04:10:32;;;;;;;27.10;17.90;;;;;;;7.40;85.46;99782.02;1779610;79;21369;-55
2021/03/28 04:13:23;;;;;;;28.20;18.12;;;;;;;7.42;85.50;99787.99;1790513;77;21936;-56
2021/03/28 04:16:36;;;;;;;22.77;17.10;;;;;;;7.41;85.57;99792.45;1782528;77;20974;-59
2021/03/28 04:19:28;;;;;;;20.70;16.37;;;;;;;7.41;85.80;99787.16;1821026;78;21056;-55
2021/03/28 04:22:33;;;;;;;17.92;15.60;;;;;;;7.41;85.90;99787.16;1833550;77;21096;-56
2021/03/28 04:25:39;;;;;;;23.77;16.50;;;;;;;7.42;86.08;99794.13;1785467;78;21379;-54
2021/03/28 04:28:24;;;;;;;21.05;14.90;;;;;;;7.43;86.18;99799.75;1805883;78;21103;-58
2021/03/28 04:31:05;;;;;;;22.65;16.73;;;;;;;7.41;86.34;99797.73;1796667;78;21026;-56
2021/03/28 04:33:50;;;;;;;19.32;15.72;;;;;;;7.37;86.48;99799.02;1791443;78;21192;-57
2021/03/28 04:36:36;;;;;;;19.65;15.75;;;;;;;7.37;86.79;99795.53;1786672;78;21112;-56
2021/03/28 04:39:30;;;;;;;19.62;15.20;;;;;;;7.37;87.02;99804.31;1772804;78;21357;-57
2021/03/28 04:42:38;;;;;;;19.02;15.13;;;;;;;7.37;87.24;99806.95;1786699;79;21014;-56
2021/03/28 04:45:40;;;;;;;19.95;15.93;;;;;;;7.37;87.63;99811.41;1784644;79;21235;-55
2021/03/28 04:48:39;;;;;;;20.68;14.75;;;;;;;7.37;87.91;99813.57;1790797;79;21108;-55
2021/03/28 04:51:36;;;;;;;19.42;14.40;;;;;;;7.36;88.11;99815.02;1790930;79;21129;-55
2021/03/28 04:54:32;;;;;;;15.08;12.93;;;;;;;7.35;88.40;99816.83;1793005;79;21199;-54
2021/03/28 04:57:40;;;;;;;17.12;13.25;;;;;;;7.36;88.65;99819.83;1784840;78;20946;-55
2021/03/28 05:00:38;;;;;;;17.00;13.00;;;;;;;7.35;88.98;99827.41;1785463;79;21185;-56
2021/03/28 05:03:45;;;;;;;12.98;11.18;;;;;;;7.33;89.35;99825.41;1792349;79;21109;-55
2021/03/28 05:07:11;;;;;;;16.17;12.55;;;;;;;7.32;89.71;99827.72;1776265;79;21143;-57
2021/03/28 05:10:22;;;;;;;15.23;12.28;;;;;;;7.31;89.99;99826.04;1789308;79;21261;-55
2021/03/28 05:13:20;;;;;;;12.35;9.88;;;;;;;7.30;90.28;99828.33;1788448;79;21207;-56
2021/03/28 05:16:37;;;;;;;11.93;10.15;;;;;;;7.28;90.62;99827.64;1710032;82;21142;-55
2021/03/28 05:19:32;;;;;;;14.80;9.65;;;;;;;7.27;90.96;99827.28;1711511;81;21219;-54
2021/03/28 05:22:25;;;;;;;10.80;8.25;;;;;;;7.30;91.24;99827.52;1754387;80;21177;-55
2021/03/28 05:25:07;;;;;;;11.60;8.03;;;;;;;7.33;91.31;99834.66;1757314;81;21332;-54
2021/03/28 05:28:22;;;;;;;10.90;9.18;;;;;;;7.37;91.37;99831.26;1730893;82;21138;-54
2021/03/28 05:31:32;;;;;;;9.68;8.55;;;;;;;7.39;91.40;99834.11;1730379;81;21148;-56
2021/03/28 05:34:54;;;;;;;10.75;7.53;;;;;;;7.42;91.63;99833.83;1780725;77;21140;-55
2021/03/28 05:37:50;;;;;;;9.83;7.78;;;;;;;7.50;91.96;99820.36;1787589;77;21192;-56
2021/03/28 05:40:52;;;;;;;11.25;8.25;;;;;;;7.62;91.97;99821.38;1732153;82;21401;-54
2021/03/28 05:44:02;;;;;;;8.58;7.25;;;;;;;7.75;91.80;99817.92;1739934;81;21044;-54
2021/03/28 05:47:01;;;;;;;8.75;7.22;;;;;;;7.88;91.57;99813.62;1731812;81;21041;-55
2021/03/28 05:50:00;;;;;;;7.28;6.47;;;;;;;7.98;91.30;99815.27;1736481;81;21080;-55
2021/03/28 05:53:05;;;;;;;8.63;6.92;;;;;;;8.07;90.87;99819.70;1747674;81;21172;-57
2021/03/28 05:55:59;;;;;;;8.13;6.62;;;;;;;8.13;90.31;99818.77;1718355;80;21363;-55
2021/03/28 05:58:41;;;;;;;8.93;6.47;;;;;;;8.15;90.04;99820.29;1687241;80;21133;-59
2021/03/28 06:01:25;;;;;;;8.80;7.42;;;;;;;8.20;89.87;99827.31;1763808;79;21105;-56
2021/03/28 06:04:37;;;;;;;8.10;6.67;;;;;;;8.27;89.68;99826.25;1762549;79;21120;-55
2021/03/28 06:07:59;;;;;;;7.95;6.42;;;;;;;8.36;89.38;99830.20;1638797;82;21221;-56
2021/03/28 06:11:24;;;;;;;7.75;6.95;;;;;;;8.45;89.02;99828.45;1759367;79;21023;-57
2021/03/28 06:14:47;;;;;;;8.03;7.22;;;;;;;8.51;88.54;99822.56;1755069;80;21025;-56
2021/03/28 06:17:29;;;;;;;7.50;6.80;;;;;;;8.58;88.25;99834.23;1745439;79;21185;-55
2021/03/28 06:20:29;;;;;;;7.05;6.35;;;;;;;8.65;87.84;99834.00;1752218;80;21164;-55
2021/03/28 06:23:41;;;;;;;9.40;6.72;;;;;;;8.68;87.40;99827.08;1730820;82;21131;-55
2021/03/28 06:26:45;;;;;;;8.78;7.33;;;;;;;8.73;87.18;99834.09;1735246;82;21460;-56
2021/03/28 06:29:46;;;;;;;7.70;6.87;;;;;;;8.78;87.18;99838.94;1741989;81;21185;-56
2021/03/28 06:33:06;;;;;;;7.83;7.03;;;;;;;8.82;86.79;99831.01;1753352;80;21105;-57
2021/03/28 06:36:34;;;;;;;7.55;6.60;;;;;;;8.83;86.48;99828.22;1785864;79;20962;-56
2021/03/28 06:39:38;;;;;;;7.70;6.90;;;;;;;8.86;86.32;99826.60;1793191;79;21145;-57
2021/03/28 06:42:48;;;;;;;8.38;7.62;;;;;;;8.90;85.94;99829.28;1734486;82;21223;-55
2021/03/28 06:45:51;;;;;;;8.80;8.05;;;;;;;8.94;85.54;99827.17;1748332;79;21137;-55
2021/03/28 06:48:40;;;;;;;9.30;8.45;;;;;;;8.94;85.23;99831.95;1739344;81;21061;-58
2021/03/28 06:51:34;;;;;;;10.03;8.70;;;;;;;9.00;85.10;99834.02;1814363;78;20990;-55
2021/03/28 06:54:34;;;;;;;12.03;9.13;;;;;;;9.03;84.84;99823.59;1736983;82;21066;-55
2021/03/28 06:57:32;;;;;;;9.80;8.78;;;;;;;9.06;84.68;99833.91;1761235;79;21327;-56
2021/03/28 07:00:23;;;;;;;10.35;9.25;;;;;;;9.08;84.40;99831.92;1780789;79;21139;-56
2021/03/28 07:03:26;;;;;;;10.75;9.75;;;;;;;9.13;84.28;99834.95;1794455;79;20987;-57
2021/03/28 07:06:49;;;;;;;11.88;9.48;;;;;;;9.16;84.20;99840.80;1790999;79;20983;-59
2021/03/28 07:09:57;;;;;;;7.85;7.05;;;;;;;9.15;83.39;99838.31;1794410;78;20930;-56
2021/03/28 07:12:53;;;;;;;8.65;7.20;;;;;;;9.13;82.88;99840.27;1753175;81;21208;-56
2021/03/28 07:15:50;;;;;;;6.95;6.35;;;;;;;9.15;82.43;99844.95;1801035;78;21073;-59
2021/03/28 07:18:48;;;;;;;7.67;6.85;;;;;;;9.13;82.16;99852.20;1785093;78;21101;-60
2021/03/28 07:21:50;;;;;;;7.28;6.67;;;;;;;9.13;82.08;99855.70;1757487;80;21021;-58
2021/03/28 07:24:55;;;;;;;7.28;6.65;;;;;;;9.13;82.03;99859.69;1730217;82;21162;-56
2021/03/28 07:28:00;;;;;;;8.13;6.65;;;;;;;9.08;81.74;99863.29;1727604;81;21442;-55
2021/03/28 07:30:49;;;;;;;7.12;6.50;;;;;;;9.00;81.48;99869.84;1742968;81;21237;-55
2021/03/28 07:34:09;;;;;;;6.92;6.33;;;;;;;8.93;81.56;99867.94;1741198;81;21196;-58
2021/03/28 07:37:18;;;;;;;7.50;6.80;;;;;;;8.93;81.44;99867.94;1736184;81;21051;-56
2021/03/28 07:40:06;;;;;;;7.53;6.62;;;;;;;8.89;81.52;99869.24;1729011;80;21160;-55
2021/03/28 07:43:04;;;;;;;6.87;6.28;;;;;;;8.84;81.70;99864.36;1734041;82;21424;-56
2021/03/28 07:46:21;;;;;;;9.68;8.20;;;;;;;8.83;81.49;99868.51;1739545;80;21057;-56
2021/03/28 07:49:34;;;;;;;15.13;9.68;;;;;;;8.81;81.28;99869.99;1726385;81;21129;-55
2021/03/28 07:52:27;;;;;;;14.85;10.53;;;;;;;8.75;81.10;99868.41;1748054;81;21101;-56
2021/03/28 07:55:09;;;;;;;11.35;9.33;;;;;;;8.68;81.00;99870.33;1737203;80;21148;-55
2021/03/28 07:58:12;;;;;;;12.20;9.53;;;;;;;8.65;81.04;99878.61;1782666;79;21351;-55
2021/03/28 08:01:34;;;;;;;12.53;10.20;;;;;;;8.64;81.05;99880.06;1787702;78;21208;-55
2021/03/28 08:04:28;;;;;;;14.90;10.75;;;;;;;8.61;81.33;99881.68;1788319;79;21168;-55
2021/03/28 08:07:11;;;;;;;12.78;9.70;;;;;;;8.54;81.49;99881.45;1685921;84;21180;-56
2021/03/28 08:10:04;;;;;;;9.15;7.95;;;;;;;8.53;80.99;99882.91;1684882;85;21025;-57
2021/03/28 08:13:09;;;;;;;7.55;6.45;;;;;;;8.52;80.41;99882.09;1684298;85;21382;-55
2021/03/28 08:16:16;;;;;;;7.42;6.72;;;;;;;8.55;79.88;99883.62;1656549;85;21068;-57
2021/03/28 08:19:05;;;;;;;6.63;6.00;;;;;;;8.59;79.50;99899.56;1654804;86;21152;-55
2021/03/28 08:21:54;;;;;;;6.60;5.92;;;;;;;8.60;79.31;99894.09;1624286;88;21266;-56
2021/03/28 08:24:37;;;;;;;6.95;6.25;;;;;;;8.62;79.34;99893.48;1662653;83;21140;-56
2021/03/28 08:27:39;;;;;;;6.67;6.03;;;;;;;8.62;79.20;99888.18;1675687;83;22333;-55
2021/03/28 08:30:33;;;;;;;5.80;5.20;;;;;;;8.61;79.22;99878.54;1671426;83;21562;-56
2021/03/28 08:33:16;;;;;;;6.75;6.10;;;;;;;8.70;78.84;99884.78;1816480;77;22255;-57
2021/03/28 08:36:18;;;;;;;6.47;5.87;;;;;;;8.68;78.33;99886.24;1807916;78;21428;-58
2021/03/28 08:39:05;;;;;;;4.97;4.50;;;;;;;8.67;77.36;99891.70;1801582;78;21202;-55
2021/03/28 08:42:23;;;;;;;5.72;5.22;;;;;;;8.64;77.02;99890.67;1777419;78;20956;-55
2021/03/28 08:45:32;;;;;;;6.15;5.55;;;;;;;8.62;76.79;99894.81;1805470;79;21001;-57
2021/03/28 08:48:16;;;;;;;6.28;5.50;;;;;;;8.60;76.67;99893.29;1802185;79;21589;-56
2021/03/28 08:51:09;;;;;;;5.87;5.25;;;;;;;8.57;76.48;99893.09;1782341;79;20938;-56
2021/03/28 08:54:22;;;;;;;6.60;5.22;;;;;;;8.57;76.61;99882.48;1799778;79;21358;-55
2021/03/28 08:57:17;;;;;;;5.25;4.75;;;;;;;8.54;75.99;99892.06;1756179;81;21041;-55
2021/03/28 09:00:21;;;;;;;5.62;5.12;;;;;;;8.52;75.81;99901.98;1747747;81;20958;-58
2021/03/28 09:03:17;;;;;;;5.50;5.03;;;;;;;8.53;75.93;99907.61;1708233;82;21262;-54
2021/03/28 09:05:59;;;;;;;6.65;5.62;;;;;;;8.56;75.92;99902.50;1784180;79;20882;-58
2021/03/28 09:08:37;;;;;;;5.42;4.90;;;;;;;8.57;76.01;99893.09;1777875;79;21382;-56
2021/03/28 09:11:59;;;;;;;5.92;5.17;;;;;;;8.60;75.98;99897.27;1786500;79;20972;-55
2021/03/28 09:14:38;;;;;;;5.62;5.12;;;;;;;8.63;75.68;99900.44;1796827;79;21142;-56
2021/03/28 09:17:21;;;;;;;5.30;4.90;;;;;;;8.67;75.83;99900.98;1791261;79;20993;-57
2021/03/28 09:20:16;;;;;;;6.12;5.53;;;;;;;8.72;75.42;99897.40;1749483;79;21132;-55
2021/03/28 09:23:12;;;;;;;6.60;6.00;;;;;;;8.73;75.11;99896.91;1807399;79;21158;-55
2021/03/28 09:25:54;;;;;;;7.03;6.12;;;;;;;8.75;74.34;99901.58;1793912;79;21020;-56
2021/03/28 09:28:57;;;;;;;7.67;6.85;;;;;;;8.69;73.75;99902.52;1798103;79;21143;-54
2021/03/28 09:31:55;;;;;;;7.08;6.40;;;;;;;8.63;73.42;99902.25;1780963;79;21235;-57
2021/03/28 09:35:15;;;;;;;6.80;6.20;;;;;;;8.59;73.54;99897.75;1677443;84;21229;-54
2021/03/28 09:38:31;;;;;;;7.05;5.87;;;;;;;8.56;73.48;99888.77;1778346;79;21377;-54
2021/03/28 09:41:13;;;;;;;7.40;6.70;;;;;;;8.53;73.61;99888.20;1764456;79;21136;-54
2021/03/28 09:44:23;;;;;;;8.10;7.33;;;;;;;8.47;72.79;99907.38;1790971;79;21581;-55
2021/03/28 09:47:18;;;;;;;8.58;7.78;;;;;;;8.40;72.36;99919.05;1778530;79;21183;-55
2021/03/28 09:50:06;;;;;;;8.80;8.00;;;;;;;8.32;72.77;99904.36;1819466;78;22712;-57
2021/03/28 09:53:04;;;;;;;7.90;7.20;;;;;;;8.23;73.17;99914.97;1783046;79;21060;-55
2021/03/28 09:56:00;;;;;;;8.20;7.17;;;;;;;8.15;73.65;99919.67;1776558;77;21195;-55
2021/03/28 09:58:39;;;;;;;7.33;6.65;;;;;;;8.05;74.56;99919.71;1776735;79;21069;-58
2021/03/28 10:01:23;;;;;;;7.03;6.30;;;;;;;7.97;75.43;99921.39;1783017;79;21009;-55
2021/03/28 10:04:28;;;;;;;7.53;6.92;;;;;;;7.90;76.02;99930.90;1787158;79;21018;-56
2021/03/28 10:07:03;;;;;;;7.47;6.78;;;;;;;7.84;76.74;99932.78;1787880;78;21029;-58
2021/03/28 10:09:53;;;;;;;8.13;7.33;;;;;;;7.81;77.76;99927.77;1815479;77;21187;-57
2021/03/28 10:12:29;;;;;;;7.87;5.65;;;;;;;7.76;77.97;99921.58;1779825;78;20930;-56
2021/03/28 10:15:19;;;;;;;6.83;6.15;;;;;;;7.71;78.37;99921.65;1791002;79;21040;-56
2021/03/28 10:18:05;;;;;;;6.83;6.22;;;;;;;7.63;78.91;99918.38;1775597;79;21037;-59
2021/03/28 10:21:08;;;;;;;6.58;6.00;;;;;;;7.54;79.27;99922.34;1780491;79;21312;-56
2021/03/28 10:24:04;;;;;;;6.75;6.15;;;;;;;7.45;79.81;99922.72;1784604;79;21337;-55
2021/03/28 10:27:15;;;;;;;7.17;6.45;;;;;;;7.37;80.18;99925.22;1777417;79;21151;-57
2021/03/28 10:30:10;;;;;;;5.85;5.30;;;;;;;7.32;81.04;99926.97;1776825;79;20989;-57
2021/03/28 10:33:21;;;;;;;5.80;5.20;;;;;;;7.29;81.59;99933.86;1780556;79;20966;-58
2021/03/28 10:36:26;;;;;;;5.17;4.67;;;;;;;7.23;82.11;99931.75;1777200;79;21100;-58
2021/03/28 10:39:33;;;;;;;4.30;3.90;;;;;;;7.19;82.46;99930.38;1789992;79;21366;-60
2021/03/28 10:42:52;;;;;;;6.30;5.10;;;;;;;7.17;82.92;99929.65;1808148;79;21174;-56
2021/03/28 10:45:50;;;;;;;4.45;3.98;;;;;;;7.15;83.52;99931.61;1798156;79;21179;-55
2021/03/28 10:48:50;;;;;;;4.92;4.40;;;;;;;7.14;83.64;99947.15;1787787;79;21429;-55
2021/03/28 10:51:58;;;;;;;4.37;3.98;;;;;;;7.10;83.54;99947.06;1782363;77;21617;-57
2021/03/28 10:55:11;;;;;;;3.62;3.30;;;;;;;7.09;83.74;99947.20;1803833;79;21200;-53
2021/03/28 10:58:28;;;;;;;5.83;3.77;;;;;;;7.05;83.43;99953.25;1812503;79;21000;-63
2021/03/28 11:01:24;;;;;;;4.90;3.80;;;;;;;6.99;83.20;99951.65;1703954;83;21117;-51
2021/03/28 11:04:50;;;;;;;4.53;4.10;;;;;;;6.94;83.82;99959.97;1680455;85;21269;-58
2021/03/28 11:11:13;;;;;;;4.53;3.55;;;;;;;6.83;85.63;99968.00;1727982;83;20980;-58
2021/03/28 11:14:06;;;;;;;5.55;3.87;;;;;;;6.84;85.67;99968.37;1728895;83;20985;-57
2021/03/28 11:16:56;;;;;;;5.42;4.62;;;;;;;6.86;85.46;99971.70;1657851;83;21124;-57
2021/03/28 11:20:15;;;;;;;3.80;3.50;;;;;;;6.89;85.01;99975.89;1711424;83;21012;-57
2021/03/28 11:22:54;;;;;;;3.90;3.50;;;;;;;6.87;84.86;99978.68;1701134;83;28215;-58
2021/03/28 11:25:31;;;;;;;3.67;3.20;;;;;;;6.89;85.06;99985.98;1725009;83;21078;-56
2021/03/28 11:28:25;;;;;;;4.33;3.30;;;;;;;6.93;85.65;99988.73;1726078;83;21379;-59
2021/03/28 11:31:24;;;;;;;3.85;3.55;;;;;;;6.96;85.31;99995.56;1795126;79;22796;-57
2021/03/28 11:34:19;;;;;;;3.95;3.45;;;;;;;6.91;85.19;99999.09;1809991;76;22694;-57
2021/03/28 11:37:01;;;;;;;4.65;3.80;;;;;;;6.84;85.28;100004.07;1725624;82;20939;-58
2021/03/28 11:40:07;;;;;;;4.20;3.80;;;;;;;6.87;85.31;100003.81;1809770;78;22939;-56
2021/03/28 11:42:35;;;;;;;3.37;3.02;;;;;;;6.81;85.53;100006.98;1781177;79;20982;-58
2021/03/28 11:45:31;;;;;;;4.20;3.80;;;;;;;6.76;85.86;100012.67;1776628;79;21262;-56
2021/03/28 11:48:28;;;;;;;3.80;3.50;;;;;;;6.78;86.20;100005.44;1814911;78;22723;-57
2021/03/28 11:51:18;;;;;;;4.90;3.87;;;;;;;6.73;86.50;100015.58;1776812;79;21043;-57
2021/03/28 11:53:48;;;;;;;3.67;3.33;;;;;;;6.72;86.38;100019.22;1773623;79;21161;-57
2021/03/28 11:56:50;;;;;;;3.12;2.83;;;;;;;6.71;86.23;100020.65;1776678;79;20982;-60
2021/03/28 11:59:27;;;;;;;4.75;3.40;;;;;;;6.66;86.18;100019.73;1789062;77;21004;-57
2021/03/28 12:02:02;;;;;;;3.30;3.00;;;;;;;6.61;85.98;100021.94;1809112;77;21563;-56
2021/03/28 12:04:44;;;;;;;3.70;3.40;;;;;;;6.56;85.74;100026.78;1776895;78;20985;-58
2021/03/28 12:07:29;;;;;;;4.00;3.00;;;;;;;6.52;85.61;100024.03;1797261;79;21366;-57
2021/03/28 12:10:06;;;;;;;4.47;3.42;;;;;;;6.49;85.63;100028.77;1808817;78;20990;-58
2021/03/28 12:12:53;;;;;;;3.25;2.85;;;;;;;6.45;85.84;100030.83;1793403;79;21546;-60
2021/03/28 12:15:52;;;;;;;3.67;3.05;;;;;;;6.44;85.87;100025.17;1783144;78;21044;-56
2021/03/28 12:18:29;;;;;;;3.77;3.47;;;;;;;6.41;86.17;100036.03;1788466;77;21584;-57
2021/03/28 12:21:09;;;;;;;4.50;3.92;;;;;;;6.45;86.49;100036.11;1788468;79;21018;-58
2021/03/28 12:23:44;;;;;;;4.17;3.77;;;;;;;6.46;86.31;100031.67;1776700;79;21084;-57
2021/03/28 12:26:39;;;;;;;5.40;4.25;;;;;;;6.43;86.05;100035.89;1795840;79;21126;-55
2021/03/28 12:29:17;;;;;;;4.20;3.80;;;;;;;6.40;86.37;100043.59;1782023;79;21127;-56
2021/03/28 12:31:50;;;;;;;4.10;3.72;;;;;;;6.42;86.50;100039.01;1775192;78;21025;-59
2021/03/28 12:34:34;;;;;;;6.12;3.30;;;;;;;6.43;86.62;100034.56;1799090;78;21358;-56
2021/03/28 12:37:11;;;;;;;4.37;3.98;;;;;;;6.42;86.52;100040.80;1775015;79;21143;-55
2021/03/28 12:39:40;;;;;;;;;;;;;;;6.40;86.27;100046.23;1779636;79;21005;-55
2021/03/28 12:42:17;;;;;;;5.00;3.17;;;;;;;6.38;85.87;100041.58;1777671;78;20155;-54
2021/03/28 12:44:48;;;;;;;4.00;3.70;;;;;;;6.37;85.58;100047.81;1788622;78;21711;-54
2021/03/28 12:47:25;;;;;;;3.12;2.90;;;;;;;6.34;85.02;100046.75;1780102;79;22225;-53
2021/03/28 12:50:02;;;;;;;3.50;3.15;;;;;;;6.30;84.62;100052.43;1805587;77;21574;-54
2021/03/28 12:52:50;;;;;;;4.92;3.95;;;;;;;6.25;84.53;100054.14;1785270;79;21009;-56
2021/03/28 12:55:36;;;;;;;4.15;3.75;;;;;;;6.20;84.31;100058.47;1782945;79;21028;-56
2021/03/28 12:58:11;;;;;;;4.95;3.47;;;;;;;6.13;83.88;100059.11;1794388;79;20973;-55
2021/03/28 13:01:02;;;;;;;3.90;3.52;;;;;;;6.04;84.07;100059.42;1784638;79;21184;-54
2021/03/28 13:03:43;;;;;;;3.58;3.02;;;;;;;6.00;84.25;100065.91;1783371;79;21258;-53
2021/03/28 13:06:41;;;;;;;3.27;2.67;;;;;;;5.95;84.34;100068.09;1782364;79;21664;-57
2021/03/28 13:09:18;;;;;;;4.25;3.58;;;;;;;5.93;84.67;100065.22;1790510;79;21001;-56
2021/03/28 13:11:53;;;;;;;3.87;3.42;;;;;;;5.87;85.20;100070.52;1782629;79;20918;-54
2021/03/28 13:14:45;;;;;;;3.95;3.65;;;;;;;5.82;85.15;100077.11;1784658;79;22250;-55
2021/03/28 13:17:30;;;;;;;4.10;3.45;;;;;;;5.79;85.72;100080.03;1808065;79;21001;-55
2021/03/28 13:20:23;;;;;;;;;;;;;;;5.74;85.75;100083.02;1772945;79;21021;-55
2021/03/28 13:22:50;;;;;;;3.42;3.02;;;;;;;5.69;85.85;100082.56;1813444;77;20148;-54
2021/03/28 13:25:25;;;;;;;2.90;2.60;;;;;;;5.66;85.81;100079.35;1793098;78;21186;-54
2021/03/28 13:28:13;;;;;;;4.20;3.35;;;;;;;5.63;85.92;100083.08;1790920;79;21369;-55
2021/03/28 13:30:43;;;;;;;3.50;3.20;;;;;;;5.61;86.26;100079.70;1782393;79;20977;-54
2021/03/28 13:33:22;;;;;;;3.85;3.45;;;;;;;5.61;86.37;100083.19;1782337;77;21107;-54
2021/03/28 13:35:51;;;;;;;5.03;3.80;;;;;;;5.61;86.57;100081.02;1789289;79;22127;-54
2021/03/28 13:38:29;;;;;;;4.58;4.17;;;;;;;5.59;86.73;100075.88;1800524;79;21128;-55
2021/03/28 13:41:01;;;;;;;4.03;3.62;;;;;;;5.58;86.97;100091.34;1786458;79;21364;-55
2021/03/28 13:43:36;;;;;;;5.72;3.90;;;;;;;5.60;87.19;100088.60;1756952;79;21037;-54